createdAt,value
2023-08-09T00:02:37.989Z,37.35
2023-08-09T00:07:40.853Z,37.47
2023-08-09T00:12:46.490Z,37.26
2023-08-09T00:17:49.568Z,37.70
2023-08-09T00:22:52.530Z,37.56
2023-08-09T00:27:57.086Z,37.17
2023-08-09T00:32:59.959Z,37.62
2023-08-09T00:38:04.233Z,37.31
2023-08-09T00:43:12.110Z,37.42
2023-08-09T00:48:15.147Z,37.46
2023-08-09T00:53:18.276Z,37.31
2023-08-09T00:58:22.485Z,37.45
2023-08-09T01:03:25.630Z,37.39
2023-08-09T01:08:32.171Z,37.62
2023-08-09T01:13:38.188Z,37.29
2023-08-09T01:18:42.983Z,37.67
2023-08-09T01:23:48.487Z,37.62
2023-08-09T01:28:51.320Z,37.22
2023-08-09T01:33:54.208Z,37.49
2023-08-09T01:39:02.912Z,37.71
2023-08-09T01:44:06.554Z,37.46
2023-08-09T01:49:11.402Z,37.56
2023-08-09T01:54:18.389Z,37.85
2023-08-09T01:59:21.313Z,37.75
2023-08-09T02:04:25.531Z,37.70
2023-08-09T02:09:30.268Z,37.80
2023-08-09T02:14:33.170Z,37.69
2023-08-09T02:19:36.258Z,37.38
2023-08-09T02:24:40.446Z,37.74
2023-08-09T02:29:43.349Z,37.60
2023-08-09T02:34:46.190Z,37.28
2023-08-09T02:39:51.211Z,37.68
2023-08-09T02:44:54.065Z,37.83
2023-08-09T02:49:57.084Z,37.58
2023-08-09T02:55:01.286Z,37.44
2023-08-09T03:00:05.379Z,37.44
2023-08-09T03:05:09.607Z,37.48
2023-08-09T03:10:13.852Z,37.82
2023-08-09T03:15:17.198Z,37.81
2023-08-09T03:20:20.101Z,37.64
2023-08-09T03:25:24.643Z,37.92
2023-08-09T03:30:27.596Z,37.56
2023-08-09T03:35:30.522Z,37.88
2023-08-09T03:40:34.745Z,37.91
2023-08-09T03:45:38.011Z,37.91
2023-08-09T03:50:41.115Z,37.57
2023-08-09T03:55:45.359Z,37.58
2023-08-09T04:00:48.245Z,37.68
2023-08-09T04:05:51.303Z,37.90
2023-08-09T04:10:55.820Z,37.92
2023-08-09T04:15:58.785Z,37.58
2023-08-09T04:21:01.653Z,37.83
2023-08-09T04:26:05.870Z,37.95
2023-08-09T04:31:08.733Z,37.65
2023-08-09T04:36:11.758Z,37.66
2023-08-09T04:41:16.951Z,37.68
2023-08-09T04:46:20.210Z,37.93
2023-08-09T04:51:23.252Z,37.67
2023-08-09T04:56:27.495Z,38.09
2023-08-09T05:01:30.578Z,37.86
2023-08-09T05:06:33.466Z,37.70
2023-08-09T05:11:39.778Z,37.43
2023-08-09T05:16:42.671Z,37.92
2023-08-09T05:21:45.658Z,37.83
2023-08-09T05:26:49.918Z,37.86
2023-08-09T05:31:52.849Z,37.46
2023-08-09T05:36:55.771Z,37.96
2023-08-09T05:42:00.093Z,37.77
2023-08-09T05:47:03.384Z,37.87
2023-08-09T05:52:07.164Z,37.51
2023-08-09T05:57:11.407Z,37.54
2023-08-09T06:02:14.357Z,37.67
2023-08-09T06:07:17.414Z,37.48
2023-08-09T06:12:21.672Z,37.52
2023-08-09T06:17:24.584Z,37.76
2023-08-09T06:22:27.497Z,37.58
2023-08-09T06:27:32.217Z,37.66
2023-08-09T06:32:35.261Z,37.59
2023-08-09T06:37:38.187Z,37.83
2023-08-09T06:42:42.346Z,37.65
2023-08-09T06:47:45.331Z,37.56
2023-08-09T06:52:49.872Z,37.51
2023-08-09T06:57:54.043Z,37.76
2023-08-09T07:02:56.932Z,37.73
2023-08-09T07:08:01.966Z,37.54
2023-08-09T07:13:06.771Z,38.75
2023-08-09T07:18:10.514Z,38.90
2023-08-09T07:23:13.970Z,39.31
2023-08-09T07:28:19.302Z,39.45
2023-08-09T07:33:22.847Z,39.31
2023-08-09T07:38:25.768Z,39.57
2023-08-09T07:43:29.961Z,39.17
2023-08-09T07:48:32.988Z,38.75
2023-08-09T07:53:36.369Z,39.20
2023-08-09T07:58:40.704Z,39.07
2023-08-09T08:03:43.674Z,38.72
2023-08-09T08:08:47.554Z,38.96
2023-08-09T08:13:51.828Z,38.04
2023-08-09T08:18:54.734Z,37.94
2023-08-09T08:23:58.485Z,37.82
2023-08-09T08:29:03.623Z,37.98
2023-08-09T08:34:07.327Z,38.02
2023-08-09T08:39:16.550Z,38.19
2023-08-09T08:44:19.607Z,37.68
2023-08-09T08:49:26.346Z,37.31
2023-08-09T08:54:31.986Z,37.18
2023-08-09T08:59:35.379Z,36.88
2023-08-09T09:04:40.081Z,36.99
2023-08-09T09:09:58.983Z,37.13
2023-08-09T09:15:02.120Z,37.22
2023-08-09T09:20:07.580Z,36.74
2023-08-09T09:25:12.932Z,36.97
2023-08-09T09:30:15.924Z,37.59
2023-08-09T09:35:19.157Z,37.34
2023-08-09T09:40:27.252Z,37.32
2023-08-09T09:45:31.834Z,37.59
2023-08-09T09:50:35.373Z,37.79
2023-08-09T09:55:39.797Z,35.59
2023-08-09T10:00:45.923Z,35.95
2023-08-09T10:05:49.412Z,36.24
2023-08-09T10:10:55.951Z,35.02
2023-08-09T10:16:00.036Z,35.55
2023-08-09T10:21:03.665Z,34.62
2023-08-09T10:26:07.853Z,35.85
2023-08-09T10:31:10.986Z,34.89
2023-08-09T10:36:20.572Z,35.16
2023-08-09T10:41:27.647Z,35.46
2023-08-09T10:46:34.678Z,35.28
2023-08-09T10:51:48.114Z,34.91
2023-08-09T10:56:53.638Z,34.63
2023-08-09T11:01:58.320Z,33.73
2023-08-09T11:07:01.275Z,33.71
2023-08-09T11:12:08.360Z,34.58
2023-08-09T11:17:16.335Z,34.95
2023-08-09T11:22:19.457Z,35.31
2023-08-09T11:27:23.691Z,35.60
2023-08-09T11:32:28.265Z,35.63
2023-08-09T11:37:32.147Z,35.40
2023-08-09T11:42:36.410Z,35.66
2023-08-09T11:47:39.420Z,35.62
2023-08-09T11:52:42.277Z,35.56
2023-08-09T11:57:46.630Z,35.30
2023-08-09T12:02:50.886Z,35.35
2023-08-09T12:08:04.652Z,35.38
2023-08-09T12:13:10.820Z,35.82
2023-08-09T12:18:13.675Z,35.34
2023-08-09T12:23:17.158Z,35.25
2023-08-09T12:28:21.432Z,35.16
2023-08-09T12:33:27.109Z,35.39
2023-08-09T12:38:30.798Z,35.14
2023-08-09T12:43:35.029Z,35.43
2023-08-09T12:48:38.709Z,35.62
2023-08-09T12:53:41.805Z,35.26
2023-08-09T12:58:46.140Z,36.81
2023-08-09T13:03:49.446Z,35.74
2023-08-09T13:08:52.517Z,35.77
2023-08-09T13:13:57.261Z,35.32
2023-08-09T13:19:00.801Z,34.76
2023-08-09T13:24:06.762Z,35.24
2023-08-09T13:29:11.693Z,35.42
2023-08-09T13:34:14.823Z,34.87
2023-08-09T13:39:17.680Z,34.77
2023-08-09T13:44:22.092Z,34.44
2023-08-09T13:49:25.046Z,34.23
2023-08-09T13:54:28.802Z,34.05
2023-08-09T13:59:34.348Z,34.25
2023-08-09T14:04:37.200Z,33.99
2023-08-09T14:09:40.126Z,33.54
2023-08-09T14:14:44.335Z,33.49
2023-08-09T14:19:47.179Z,33.42
2023-08-09T14:24:50.781Z,33.28
2023-08-09T14:29:57.506Z,33.44
2023-08-09T14:35:00.622Z,33.25
2023-08-09T14:40:07.997Z,33.41
2023-08-09T14:45:12.969Z,33.92
2023-08-09T14:50:15.923Z,33.27
2023-08-09T14:55:18.877Z,33.48
2023-08-09T15:00:23.440Z,33.42
2023-08-09T15:05:26.455Z,33.61
2023-08-09T15:10:29.345Z,33.55
2023-08-09T15:15:33.593Z,33.41
2023-08-09T15:20:38.001Z,33.65
2023-08-09T15:25:40.972Z,33.32
2023-08-09T15:30:45.266Z,33.07
2023-08-09T15:35:48.238Z,32.82
2023-08-09T15:40:51.119Z,33.08
2023-08-09T15:45:55.402Z,33.14
2023-08-09T15:50:58.453Z,33.01
2023-08-09T15:56:02.213Z,32.97
2023-08-09T16:01:06.477Z,32.86
2023-08-09T16:06:12.276Z,32.83
2023-08-09T16:11:15.313Z,32.74
2023-08-09T16:16:34.041Z,32.75
2023-08-09T16:21:37.409Z,32.54
2023-08-09T16:26:40.356Z,32.48
2023-08-09T16:31:44.591Z,32.52
2023-08-09T16:36:47.540Z,32.21
2023-08-09T16:41:51.731Z,32.07
2023-08-09T16:46:59.716Z,32.21
2023-08-09T16:52:03.808Z,32.05
2023-08-09T16:57:07.388Z,32.08
2023-08-09T17:02:11.721Z,32.07
2023-08-09T17:07:14.800Z,32.25
2023-08-09T17:12:18.554Z,32.48
2023-08-09T17:17:23.591Z,32.28
2023-08-09T17:22:26.838Z,32.08
2023-08-09T17:27:30.065Z,32.45
2023-08-09T17:32:34.355Z,32.48
2023-08-09T17:37:37.464Z,32.60
2023-08-09T17:42:43.088Z,32.51
2023-08-09T17:47:47.616Z,32.90
2023-08-09T17:52:50.610Z,32.96
2023-08-09T17:57:53.769Z,33.03
2023-08-09T18:02:58.157Z,33.07
2023-08-09T18:08:01.026Z,33.63
2023-08-09T18:13:04.271Z,33.87
2023-08-09T18:18:09.589Z,34.02
2023-08-09T18:23:12.704Z,34.52
2023-08-09T18:28:15.586Z,34.73
2023-08-09T18:33:19.798Z,34.80
2023-08-09T18:38:22.912Z,35.11
2023-08-09T18:43:26.175Z,35.32
2023-08-09T18:48:31.057Z,35.21
2023-08-09T18:53:33.996Z,35.13
2023-08-09T18:58:37.539Z,35.57
2023-08-09T19:03:43.595Z,35.78
2023-08-09T19:08:46.577Z,36.01
2023-08-09T19:13:49.535Z,35.83
2023-08-09T19:18:54.681Z,36.04
2023-08-09T19:23:57.761Z,36.21
2023-08-09T19:29:00.694Z,36.11
2023-08-09T19:34:05.113Z,36.29
2023-08-09T19:39:08.092Z,36.31
2023-08-09T19:44:11.009Z,36.35
2023-08-09T19:49:15.502Z,36.49
2023-08-09T19:54:18.410Z,36.81
2023-08-09T19:59:21.307Z,36.62
2023-08-09T20:04:25.512Z,36.41
2023-08-09T20:09:28.476Z,36.78
2023-08-09T20:14:31.344Z,36.96
2023-08-09T20:19:35.520Z,36.94
2023-08-09T20:24:42.722Z,37.11
2023-08-09T20:29:45.591Z,36.91
2023-08-09T20:34:49.804Z,37.27
2023-08-09T20:39:52.852Z,37.01
2023-08-09T20:44:55.727Z,37.35
2023-08-09T20:50:00.781Z,36.99
2023-08-09T20:55:04.405Z,37.13
2023-08-09T21:00:13.448Z,37.42
2023-08-09T21:05:17.698Z,37.48
2023-08-09T21:10:21.005Z,37.57
2023-08-09T21:15:24.130Z,37.50
2023-08-09T21:20:28.500Z,37.50
2023-08-09T21:30:41.954Z,37.67
2023-08-09T21:35:46.190Z,37.75
2023-08-09T21:40:57.996Z,37.98
2023-08-09T21:46:00.966Z,37.78
2023-08-09T21:51:05.208Z,37.91
2023-08-09T21:56:08.051Z,38.31
2023-08-09T22:01:10.962Z,38.31
2023-08-09T22:06:15.405Z,38.44
2023-08-09T22:11:18.667Z,38.38
2023-08-09T22:16:25.229Z,38.21
2023-08-09T22:26:32.894Z,38.48
2023-08-09T22:31:35.802Z,38.32
2023-08-09T22:36:40.048Z,38.62
2023-08-09T22:41:42.879Z,38.53
2023-08-09T22:46:45.816Z,38.65
2023-08-09T22:51:50.086Z,38.69
2023-08-09T22:56:52.999Z,38.47
2023-08-09T23:01:56.814Z,38.90
2023-08-09T23:07:01.026Z,38.59
2023-08-09T23:12:04.680Z,38.52
2023-08-09T23:17:08.177Z,38.73
2023-08-09T23:22:12.352Z,38.82
2023-08-09T23:27:15.262Z,38.79
2023-08-09T23:32:18.182Z,38.59
2023-08-09T23:37:22.464Z,38.96
2023-08-09T23:42:26.691Z,38.90
2023-08-09T23:47:29.597Z,38.96
2023-08-09T23:52:34.108Z,39.20
2023-08-09T23:57:36.986Z,39.04
